createdAt,value
2022-10-19T00:01:20.562Z,0.88
2022-10-19T00:03:51.071Z,0.75
2022-10-19T00:06:29.808Z,0.90
2022-10-19T00:09:01.125Z,0.90
2022-10-19T00:11:30.246Z,1.42
2022-10-19T00:13:59.276Z,1.70
2022-10-19T00:16:30.917Z,0.90
2022-10-19T00:19:00.545Z,1.77
2022-10-19T00:21:28.406Z,1.40
2022-10-19T00:23:55.972Z,0.93
2022-10-19T00:26:23.295Z,1.40
2022-10-19T00:28:53.237Z,1.40
2022-10-19T00:31:22.030Z,1.17
2022-10-19T00:33:49.897Z,1.30
2022-10-19T00:36:44.410Z,0.80
2022-10-19T00:39:14.717Z,1.00
2022-10-19T00:53:34.939Z,1.02
2022-10-19T00:56:16.246Z,0.70
2022-10-19T00:58:46.396Z,1.08
2022-10-19T01:01:17.659Z,0.80
2022-10-19T01:03:47.453Z,1.20
2022-10-19T01:06:17.609Z,0.80
2022-10-19T01:08:47.868Z,0.98
2022-10-19T01:11:23.999Z,1.00
2022-10-19T01:14:22.381Z,1.15
2022-10-19T01:16:56.595Z,0.80
2022-10-19T01:19:46.145Z,0.90
2022-10-19T01:22:55.852Z,1.10
2022-10-19T01:25:53.519Z,1.60
2022-10-19T01:28:33.400Z,1.05
2022-10-19T01:31:35.961Z,0.80
2022-10-19T01:34:20.026Z,2.20
2022-10-19T01:37:14.820Z,2.53
2022-10-19T01:40:03.821Z,2.35
2022-10-19T01:42:31.418Z,2.55
2022-10-19T01:45:15.982Z,1.58
2022-10-19T01:48:00.157Z,1.80
2022-10-19T01:50:43.939Z,1.70
2022-10-19T01:53:13.439Z,1.52
2022-10-19T01:55:44.069Z,0.98
2022-10-19T01:58:17.833Z,1.05
2022-10-19T02:00:48.918Z,1.30
2022-10-19T02:03:18.466Z,1.00
2022-10-19T02:05:48.684Z,1.05
2022-10-19T02:08:24.708Z,1.00
2022-10-19T02:10:54.626Z,0.85
2022-10-19T02:13:22.846Z,1.00
2022-10-19T02:15:55.129Z,0.70
2022-10-19T02:18:34.964Z,0.60
2022-10-19T02:21:07.001Z,1.05
2022-10-19T02:23:37.213Z,0.55
2022-10-19T02:26:09.231Z,0.70
2022-10-19T02:28:38.580Z,0.50
2022-10-19T02:31:06.909Z,0.63
2022-10-19T02:33:36.351Z,0.40
2022-10-19T02:36:04.558Z,0.40
2022-10-19T02:38:32.453Z,0.45
2022-10-19T02:41:24.867Z,0.40
2022-10-19T02:43:59.211Z,0.40
2022-10-19T02:46:48.501Z,0.40
2022-10-19T02:49:16.702Z,0.40
2022-10-19T02:52:17.747Z,0.45
2022-10-19T02:54:47.269Z,0.40
2022-10-19T02:57:24.479Z,0.30
2022-10-19T02:59:52.950Z,0.32
2022-10-19T03:02:21.456Z,0.40
2022-10-19T03:04:51.230Z,0.70
2022-10-19T03:07:23.013Z,0.40
2022-10-19T03:09:51.309Z,0.30
2022-10-19T03:12:20.581Z,0.30
2022-10-19T03:14:49.156Z,0.40
2022-10-19T03:17:16.738Z,0.30
2022-10-19T03:19:44.813Z,0.40
2022-10-19T03:22:15.218Z,0.30
2022-10-19T03:24:42.875Z,0.50
2022-10-19T03:27:10.665Z,0.60
2022-10-19T03:29:39.036Z,0.70
2022-10-19T03:32:06.812Z,0.40
2022-10-19T03:34:34.381Z,0.75
2022-10-19T03:37:03.523Z,0.52
2022-10-19T03:39:30.922Z,0.60
2022-10-19T03:41:58.595Z,0.60
2022-10-19T03:44:26.919Z,0.68
2022-10-19T03:46:54.325Z,0.70
2022-10-19T03:49:22.393Z,0.50
2022-10-19T03:51:51.973Z,0.65
2022-10-19T03:54:20.662Z,0.50
2022-10-19T03:56:51.029Z,0.40
2022-10-19T03:59:18.216Z,0.60
2022-10-19T04:01:47.671Z,0.60
2022-10-19T04:04:18.044Z,0.65
2022-10-19T04:06:56.707Z,0.50
2022-10-19T04:09:24.749Z,0.85
2022-10-19T04:11:53.064Z,0.93
2022-10-19T04:14:32.664Z,0.60
2022-10-19T04:17:02.679Z,0.80
2022-10-19T04:19:34.025Z,0.60
2022-10-19T04:22:02.301Z,0.40
2022-10-19T04:24:29.872Z,0.50
2022-10-19T04:26:57.256Z,0.50
2022-10-19T04:29:30.010Z,0.50
2022-10-19T04:31:59.013Z,0.40
2022-10-19T04:34:26.259Z,0.73
2022-10-19T04:36:54.338Z,0.60
2022-10-19T04:39:21.600Z,0.70
2022-10-19T04:41:49.431Z,1.02
2022-10-19T04:44:17.811Z,0.70
2022-10-19T04:46:45.579Z,0.70
2022-10-19T04:49:16.533Z,0.77
2022-10-19T04:51:49.927Z,0.60
2022-10-19T04:54:17.400Z,0.50
2022-10-19T04:56:45.180Z,0.95
2022-10-19T04:59:13.339Z,0.93
2022-10-19T05:01:46.364Z,0.68
2022-10-19T05:04:15.074Z,0.90
2022-10-19T05:06:43.585Z,0.77
2022-10-19T05:09:11.240Z,0.70
2022-10-19T05:11:39.027Z,0.65
2022-10-19T05:14:07.593Z,0.70
2022-10-19T05:16:37.310Z,0.60
2022-10-19T05:19:06.211Z,0.50
2022-10-19T05:21:38.794Z,0.60
2022-10-19T05:24:09.608Z,0.50
2022-10-19T05:26:40.876Z,0.40
2022-10-19T05:29:12.877Z,0.45
2022-10-19T05:31:42.345Z,0.40
2022-10-19T05:34:10.770Z,0.40
2022-10-19T05:36:40.892Z,0.40
2022-10-19T05:39:14.041Z,0.50
2022-10-19T05:41:48.576Z,0.50
2022-10-19T05:44:20.750Z,0.50
2022-10-19T05:46:50.051Z,0.60
2022-10-19T05:49:22.619Z,0.40
2022-10-19T05:51:51.414Z,0.40
2022-10-19T05:54:22.783Z,0.50
2022-10-19T05:56:55.296Z,0.60
2022-10-19T05:59:26.847Z,0.50
2022-10-19T06:02:21.995Z,0.70
2022-10-19T06:04:52.149Z,0.73
2022-10-19T06:07:19.741Z,0.52
2022-10-19T06:09:48.443Z,0.70
2022-10-19T06:12:16.423Z,0.80
2022-10-19T06:17:11.995Z,0.40
2022-10-19T06:19:39.489Z,0.52
2022-10-19T06:22:06.683Z,0.40
2022-10-19T06:24:34.250Z,0.50
2022-10-19T06:27:02.537Z,0.40
2022-10-19T06:29:30.748Z,0.50
2022-10-19T06:32:00.460Z,0.82
2022-10-19T06:34:29.311Z,0.68
2022-10-19T06:36:58.623Z,0.50
2022-10-19T06:39:26.444Z,0.50
2022-10-19T06:41:55.419Z,0.60
2022-10-19T06:44:25.790Z,0.50
2022-10-19T06:46:54.700Z,0.50
2022-10-19T06:49:23.391Z,0.47
2022-10-19T06:51:52.508Z,0.40
2022-10-19T06:54:20.072Z,0.40
2022-10-19T06:59:16.141Z,0.50
2022-10-19T07:01:43.794Z,0.40
2022-10-19T07:04:12.444Z,0.40
2022-10-19T07:06:39.883Z,0.35
2022-10-19T07:09:07.887Z,0.50
2022-10-19T07:11:36.136Z,0.47
2022-10-19T07:14:03.827Z,0.40
2022-10-19T07:16:31.689Z,0.50
2022-10-19T07:19:01.510Z,0.50
2022-10-19T07:21:29.841Z,0.30
2022-10-19T07:23:57.522Z,0.40
2022-10-19T07:26:28.395Z,0.50
2022-10-19T07:28:57.613Z,0.40
2022-10-19T07:31:31.634Z,0.60
2022-10-19T07:34:02.285Z,0.80
2022-10-19T07:39:44.383Z,0.50
2022-10-19T07:42:16.811Z,0.50
2022-10-19T07:44:44.953Z,0.60
2022-10-19T07:47:13.134Z,0.70
2022-10-19T07:52:23.260Z,0.60
2022-10-19T07:54:54.423Z,0.50
2022-10-19T07:57:23.825Z,0.70
2022-10-19T07:59:52.473Z,0.55
2022-10-19T08:02:25.011Z,0.50
2022-10-19T08:05:02.234Z,0.60
2022-10-19T08:07:34.406Z,0.57
2022-10-19T08:10:01.654Z,0.50
2022-10-19T08:12:30.067Z,0.70
2022-10-19T08:14:58.444Z,0.52
2022-10-19T08:17:26.216Z,1.05
2022-10-19T08:19:54.868Z,0.77
2022-10-19T08:22:25.104Z,1.02
2022-10-19T08:24:53.181Z,0.60
2022-10-19T08:27:24.862Z,0.40
2022-10-19T08:29:53.524Z,0.52
2022-10-19T08:32:21.474Z,0.60
2022-10-19T08:34:48.856Z,0.70
2022-10-19T08:37:25.775Z,0.60
2022-10-19T08:40:01.089Z,0.57
2022-10-19T08:42:58.552Z,0.63
2022-10-19T08:48:27.865Z,0.73
2022-10-19T08:50:57.271Z,0.45
2022-10-19T08:53:45.738Z,0.75
2022-10-19T08:56:49.964Z,0.65
2022-10-19T08:59:54.051Z,0.60
2022-10-19T09:02:57.141Z,0.60
2022-10-19T09:05:48.482Z,0.50
2022-10-19T09:08:19.945Z,0.50
2022-10-19T09:10:51.335Z,0.60
2022-10-19T09:13:41.255Z,0.47
2022-10-19T09:16:20.185Z,0.60
2022-10-19T09:18:48.369Z,0.98
2022-10-19T09:21:45.924Z,0.85
2022-10-19T09:24:47.286Z,0.70
2022-10-19T09:27:26.322Z,0.70
2022-10-19T09:30:03.996Z,0.80
2022-10-19T09:32:38.253Z,0.50
2022-10-19T09:35:41.492Z,0.75
2022-10-19T09:38:14.117Z,0.75
2022-10-19T09:40:41.626Z,0.70
2022-10-19T09:43:22.139Z,0.95
2022-10-19T09:46:09.634Z,0.70
2022-10-19T09:48:54.584Z,0.65
2022-10-19T09:51:23.622Z,0.43
2022-10-19T09:53:54.827Z,1.02
2022-10-19T09:56:28.271Z,0.70
2022-10-19T09:59:01.705Z,0.68
2022-10-19T10:01:50.701Z,0.60
2022-10-19T10:04:19.360Z,0.60
2022-10-19T10:06:50.036Z,0.75
2022-10-19T10:09:28.053Z,0.52
2022-10-19T10:11:59.141Z,0.60
2022-10-19T10:14:34.192Z,0.50
2022-10-19T10:17:13.543Z,0.70
2022-10-19T10:19:59.041Z,1.13
2022-10-19T10:22:47.228Z,0.63
2022-10-19T10:25:19.067Z,0.60
2022-10-19T10:28:01.248Z,0.50
2022-10-19T10:30:37.516Z,0.70
2022-10-19T10:33:13.291Z,0.63
2022-10-19T10:35:58.019Z,0.60
2022-10-19T10:41:48.761Z,0.70
2022-10-19T10:44:34.133Z,0.77
2022-10-19T10:47:06.378Z,0.45
2022-10-19T10:49:48.408Z,0.50
2022-10-19T10:52:21.245Z,0.88
2022-10-19T10:58:01.014Z,0.50
2022-10-19T11:06:12.767Z,0.50
2022-10-19T11:14:52.618Z,0.55
2022-10-19T11:17:28.305Z,0.40
2022-10-19T11:19:55.704Z,0.43
2022-10-19T11:22:38.704Z,0.40
2022-10-19T11:25:21.822Z,0.60
2022-10-19T11:28:17.348Z,0.55
2022-10-19T11:31:22.887Z,0.50
2022-10-19T11:34:28.044Z,0.73
2022-10-19T11:37:49.443Z,0.55
2022-10-19T11:40:59.643Z,0.50
2022-10-19T11:44:04.346Z,0.52
2022-10-19T11:46:56.981Z,0.60
2022-10-19T11:49:41.589Z,0.60
2022-10-19T11:52:38.702Z,0.60
2022-10-19T11:55:34.183Z,0.70
2022-10-19T11:58:34.458Z,0.65
2022-10-19T12:01:31.961Z,0.85
2022-10-19T12:04:29.965Z,0.80
2022-10-19T12:07:20.962Z,0.50
2022-10-19T12:15:32.492Z,1.25
2022-10-19T12:18:14.431Z,0.50
2022-10-19T12:21:11.815Z,0.52
2022-10-19T12:23:47.796Z,0.40
2022-10-19T12:26:24.877Z,0.50
2022-10-19T12:29:02.095Z,0.60
2022-10-19T12:31:30.722Z,0.50
2022-10-19T12:34:23.126Z,1.10
2022-10-19T12:37:08.360Z,0.70
2022-10-19T12:39:40.256Z,0.43
2022-10-19T12:42:31.567Z,0.50
2022-10-19T12:45:06.013Z,0.77
2022-10-19T12:47:33.562Z,0.63
2022-10-19T12:50:01.508Z,0.50
2022-10-19T12:52:50.790Z,0.50
2022-10-19T12:55:28.146Z,0.50
2022-10-19T12:58:20.789Z,0.60
2022-10-19T13:01:04.454Z,0.80
2022-10-19T13:03:35.458Z,0.80
2022-10-19T13:06:12.942Z,0.60
2022-10-19T13:08:54.682Z,0.45
2022-10-19T13:11:23.024Z,0.60
2022-10-19T13:14:03.399Z,0.65
2022-10-19T13:16:32.246Z,0.80
2022-10-19T13:19:00.449Z,0.47
2022-10-19T13:21:54.259Z,0.52
2022-10-19T13:24:24.390Z,1.20
2022-10-19T13:27:23.437Z,0.60
2022-10-19T13:29:50.871Z,0.75
2022-10-19T13:32:45.343Z,0.60
2022-10-19T13:35:34.765Z,0.57
2022-10-19T13:38:32.223Z,0.60
2022-10-19T13:41:19.587Z,0.75
2022-10-19T13:44:17.161Z,0.47
2022-10-19T13:47:05.600Z,0.63
2022-10-19T13:49:35.788Z,0.60
2022-10-19T13:52:14.712Z,0.50
2022-10-19T13:55:08.139Z,0.50
2022-10-19T13:57:50.035Z,0.63
2022-10-19T14:00:49.857Z,0.60
2022-10-19T14:03:26.667Z,1.13
2022-10-19T14:06:09.093Z,0.70
2022-10-19T14:08:51.274Z,0.65
2022-10-19T14:11:40.947Z,1.02
2022-10-19T14:14:10.926Z,0.50
2022-10-19T14:16:56.004Z,0.70
2022-10-19T14:19:32.286Z,0.80
2022-10-19T14:22:26.128Z,0.60
2022-10-19T14:25:24.324Z,0.80
2022-10-19T14:28:01.116Z,0.50
2022-10-19T14:30:32.423Z,0.63
2022-10-19T14:33:02.692Z,0.55
2022-10-19T14:35:34.123Z,0.60
2022-10-19T14:38:02.902Z,0.50
2022-10-19T14:40:32.560Z,0.90
2022-10-19T14:43:01.154Z,0.70
2022-10-19T14:45:31.102Z,0.68
2022-10-19T14:48:05.485Z,0.77
2022-10-19T14:50:35.608Z,0.52
2022-10-19T14:53:10.768Z,0.70
2022-10-19T14:55:41.270Z,1.02
2022-10-19T14:58:17.014Z,0.80
2022-10-19T15:00:48.569Z,0.50
2022-10-19T15:03:29.890Z,0.70
2022-10-19T15:06:02.418Z,0.60
2022-10-19T15:08:37.539Z,0.60
2022-10-19T15:11:06.859Z,0.80
2022-10-19T15:13:43.372Z,0.60
2022-10-19T15:16:51.072Z,0.70
2022-10-19T15:19:34.108Z,0.80
2022-10-19T15:22:24.294Z,0.70
2022-10-19T15:25:03.038Z,0.70
2022-10-19T15:27:40.500Z,0.50
2022-10-19T15:30:21.187Z,0.77
2022-10-19T15:32:55.619Z,0.50
2022-10-19T15:35:32.564Z,0.40
2022-10-19T15:38:17.056Z,0.80
2022-10-19T15:40:45.987Z,0.50
2022-10-19T15:43:32.594Z,0.52
2022-10-19T15:46:22.551Z,0.73
2022-10-19T15:48:55.219Z,0.70
2022-10-19T15:51:28.728Z,0.90
2022-10-19T15:53:58.238Z,1.05
2022-10-19T15:56:28.343Z,0.93
2022-10-19T15:58:58.024Z,0.60
2022-10-19T16:01:28.105Z,0.77
2022-10-19T16:04:21.855Z,0.70
2022-10-19T16:06:49.493Z,1.08
2022-10-19T16:09:20.108Z,0.70
2022-10-19T16:11:48.288Z,0.50
2022-10-19T16:16:42.650Z,0.60
2022-10-19T16:19:10.765Z,0.70
2022-10-19T16:21:38.239Z,0.77
2022-10-19T16:24:06.035Z,0.68
2022-10-19T16:26:33.750Z,0.60
2022-10-19T16:29:01.968Z,1.23
2022-10-19T16:31:29.209Z,0.70
2022-10-19T16:33:56.416Z,0.50
2022-10-19T16:36:23.842Z,0.50
2022-10-19T16:38:51.098Z,0.70
2022-10-19T16:41:18.305Z,0.95
2022-10-19T16:43:45.600Z,1.05
2022-10-19T16:46:12.895Z,0.93
2022-10-19T16:48:40.180Z,0.85
2022-10-19T16:51:07.231Z,0.88
2022-10-19T16:53:35.327Z,0.70
2022-10-19T16:56:10.438Z,0.80
2022-10-19T16:58:37.865Z,0.82
2022-10-19T17:01:10.001Z,0.60
2022-10-19T17:03:37.576Z,0.63
2022-10-19T17:06:06.366Z,0.57
2022-10-19T17:08:53.053Z,0.90
2022-10-19T17:11:29.783Z,1.25
2022-10-19T17:13:59.428Z,1.77
2022-10-19T17:16:28.048Z,1.00
2022-10-19T17:18:57.574Z,0.90
2022-10-19T17:21:28.187Z,1.23
2022-10-19T17:23:58.129Z,1.00
2022-10-19T17:26:33.437Z,1.30
2022-10-19T17:43:00.694Z,2.90
2022-10-19T17:45:27.843Z,1.83
2022-10-19T17:47:56.595Z,2.10
2022-10-19T17:50:23.781Z,1.88
2022-10-19T17:52:50.867Z,1.20
2022-10-19T17:55:18.082Z,1.13
2022-10-19T17:57:45.271Z,1.02
2022-10-19T18:00:13.107Z,0.95
2022-10-19T18:02:40.674Z,1.00
2022-10-19T18:05:08.165Z,1.45
2022-10-19T18:07:35.467Z,1.70
2022-10-19T18:10:02.854Z,1.10
2022-10-19T18:12:30.192Z,1.55
2022-10-19T18:14:57.615Z,1.30
2022-10-19T18:17:27.686Z,2.13
2022-10-19T18:19:55.199Z,1.08
2022-10-19T18:22:22.260Z,1.00
2022-10-19T18:24:49.835Z,1.60
2022-10-19T18:27:17.061Z,1.80
2022-10-19T18:29:44.186Z,1.38
2022-10-19T18:32:12.326Z,1.10
2022-10-19T18:34:39.423Z,1.00
2022-10-19T18:37:07.420Z,1.58
2022-10-19T18:39:34.529Z,2.13
2022-10-19T18:42:01.660Z,2.13
2022-10-19T18:44:32.539Z,1.60
2022-10-19T18:47:00.815Z,1.52
2022-10-19T18:49:28.006Z,1.85
2022-10-19T18:51:56.020Z,1.23
2022-10-19T18:54:24.707Z,2.28
2022-10-19T18:56:51.821Z,1.50
2022-10-19T18:59:19.173Z,1.55
2022-10-19T19:01:46.374Z,1.10
2022-10-19T19:04:13.591Z,1.50
2022-10-19T19:06:40.875Z,1.48
2022-10-19T19:09:10.691Z,1.40
2022-10-19T19:11:41.128Z,1.02
2022-10-19T19:14:15.797Z,1.27
2022-10-19T19:16:44.851Z,1.40
2022-10-19T19:19:14.183Z,1.17
2022-10-19T19:21:47.371Z,1.25
2022-10-19T19:24:16.979Z,1.08
2022-10-19T19:26:48.457Z,1.58
2022-10-19T19:29:16.526Z,1.88
2022-10-19T19:31:43.725Z,1.85
2022-10-19T19:34:11.015Z,1.60
2022-10-19T19:39:20.560Z,1.73
2022-10-19T19:41:49.199Z,1.80
2022-10-19T19:44:16.741Z,1.30
2022-10-19T19:46:43.868Z,1.95
2022-10-19T19:49:11.422Z,1.10
2022-10-19T19:51:38.812Z,1.27
2022-10-19T19:54:05.893Z,0.95
2022-10-19T19:56:33.324Z,4.70
2022-10-19T19:59:03.780Z,2.15
2022-10-19T20:01:31.797Z,1.27
2022-10-19T20:06:31.048Z,1.17
2022-10-19T20:08:58.328Z,1.30
2022-10-19T20:11:27.382Z,1.00
2022-10-19T20:13:55.513Z,1.25
2022-10-19T20:16:29.431Z,1.50
2022-10-19T20:19:09.105Z,1.20
2022-10-19T20:21:36.328Z,1.35
2022-10-19T20:24:03.924Z,1.27
2022-10-19T20:26:31.375Z,1.02
2022-10-19T20:28:59.105Z,1.40
2022-10-19T20:33:58.590Z,1.13
2022-10-19T20:36:26.670Z,1.45
2022-10-19T20:38:58.477Z,0.95
2022-10-19T20:41:28.037Z,1.00
2022-10-19T20:43:56.384Z,1.60
2022-10-19T20:46:27.041Z,1.33
2022-10-19T20:48:56.766Z,1.08
2022-10-19T20:51:32.129Z,0.82
2022-10-19T20:54:01.934Z,0.90
2022-10-19T20:56:32.793Z,1.02
2022-10-19T20:59:08.868Z,0.75
2022-10-19T21:01:38.564Z,1.00
2022-10-19T21:04:07.154Z,1.15
2022-10-19T21:06:38.201Z,1.10
2022-10-19T21:09:06.258Z,1.10
2022-10-19T21:11:36.550Z,1.15
2022-10-19T21:14:06.480Z,0.80
2022-10-19T21:16:37.844Z,1.05
2022-10-19T21:19:07.948Z,0.98
2022-10-19T21:21:37.912Z,1.00
2022-10-19T21:24:19.668Z,0.88
2022-10-19T21:26:47.086Z,0.80
2022-10-19T21:29:16.320Z,0.98
2022-10-19T21:31:49.327Z,0.90
2022-10-19T21:34:19.309Z,0.73
2022-10-19T21:36:46.739Z,0.95
2022-10-19T21:39:14.173Z,1.02
2022-10-19T21:41:41.468Z,0.80
2022-10-19T21:44:08.856Z,1.02
2022-10-19T21:46:35.935Z,0.98
2022-10-19T21:49:03.087Z,0.57
2022-10-19T21:51:50.203Z,0.85
2022-10-19T21:54:20.677Z,1.35
2022-10-19T21:56:48.327Z,1.05
2022-10-19T21:59:16.305Z,1.20
2022-10-19T22:01:43.754Z,1.30
2022-10-19T22:04:16.748Z,1.15
2022-10-19T22:06:44.296Z,0.80
2022-10-19T22:09:14.637Z,1.00
2022-10-19T22:11:42.303Z,0.93
2022-10-19T22:14:12.278Z,0.75
2022-10-19T22:16:40.447Z,1.05
2022-10-19T22:19:07.844Z,0.90
2022-10-19T22:21:35.678Z,0.80
2022-10-19T22:24:14.862Z,0.70
2022-10-19T22:26:50.693Z,0.70
2022-10-19T22:29:18.336Z,0.90
2022-10-19T22:31:45.595Z,0.70
2022-10-19T22:34:16.990Z,0.70
2022-10-19T22:36:45.034Z,1.17
2022-10-19T22:39:12.934Z,1.00
2022-10-19T22:41:40.053Z,0.80
2022-10-19T22:44:07.152Z,0.60
2022-10-19T22:46:34.652Z,0.70
2022-10-19T22:49:01.831Z,0.60
2022-10-19T22:51:29.053Z,0.95
2022-10-19T22:53:56.350Z,0.68
2022-10-19T22:56:23.787Z,0.77
2022-10-19T22:58:51.536Z,0.80
2022-10-19T23:04:35.421Z,0.68
2022-10-19T23:07:02.735Z,0.70
2022-10-19T23:09:29.901Z,0.52
2022-10-19T23:11:57.134Z,1.00
2022-10-19T23:14:24.677Z,0.52
2022-10-19T23:16:52.079Z,0.57
2022-10-19T23:19:19.448Z,0.65
2022-10-19T23:21:46.634Z,0.57
2022-10-19T23:24:13.777Z,0.80
2022-10-19T23:26:40.862Z,0.80
2022-10-19T23:29:08.074Z,0.80
2022-10-19T23:31:35.300Z,0.88
2022-10-19T23:34:02.556Z,0.90
2022-10-19T23:36:30.146Z,0.70
2022-10-19T23:38:58.811Z,0.85
2022-10-19T23:41:26.271Z,0.98
2022-10-19T23:43:53.403Z,0.65
2022-10-19T23:46:20.783Z,0.70
2022-10-19T23:48:48.013Z,0.60
2022-10-19T23:51:22.565Z,0.70
2022-10-19T23:53:51.838Z,0.60
2022-10-19T23:56:26.469Z,0.70
2022-10-19T23:58:54.706Z,0.75
